Time;durP1;ratioP1;P1;durP2;ratioP2;P2;SDS_P1;SDS_P2;PMS_P1;PMS_P2;Temp;Humidity;BMP_temperature;BMP_pressure;BME280_temperature;BME280_humidity;BME280_pressure;Samples;Min_cycle;Max_cycle;Signal;HPM_P1;HPM_P2
2023/04/05 00:01:49;;;;;;;8.17;5.43;;;6.70;71.30;;;;;;5073615;28;20441;-59
2023/04/05 00:04:19;;;;;;;14.17;9.77;;;6.80;72.30;;;;;;5073324;28;20564;-59
2023/04/05 00:06:49;;;;;;;15.07;9.07;;;6.70;72.10;;;;;;5073503;28;20452;-59
2023/04/05 00:09:18;;;;;;;10.93;6.93;;;6.70;72.20;;;;;;5073134;28;20962;-59
2023/04/05 00:11:45;;;;;;;10.30;5.80;;;6.60;72.20;;;;;;5073123;28;21016;-59
2023/04/05 00:14:11;;;;;;;8.67;4.70;;;6.60;72.60;;;;;;5073031;28;20990;-59
2023/04/05 00:16:38;;;;;;;9.00;5.30;;;6.60;72.60;;;;;;5073346;28;20455;-60
2023/04/05 00:19:06;;;;;;;7.77;5.00;;;6.60;72.30;;;;;;5074643;28;20476;-60
2023/04/05 00:21:33;;;;;;;7.33;5.20;;;6.50;72.20;;;;;;5074329;28;20489;-60
2023/04/05 00:24:00;;;;;;;5.27;4.70;;;6.50;72.60;;;;;;5074088;28;20465;-57
2023/04/05 00:26:27;;;;;;;4.87;4.37;;;6.40;72.80;;;;;;5074303;28;20448;-59
2023/04/05 00:28:54;;;;;;;7.10;5.20;;;6.40;73.20;;;;;;5074432;28;20472;-58
2023/04/05 00:31:20;;;;;;;6.73;4.40;;;6.30;73.10;;;;;;5073693;28;20472;-58
2023/04/05 00:33:47;;;;;;;8.03;5.10;;;6.30;73.40;;;;;;5073413;28;20837;-58
2023/04/05 00:36:18;;;;;;;6.73;5.30;;;6.20;73.50;;;;;;5073805;28;20535;-58
2023/04/05 00:38:46;;;;;;;7.40;4.07;;;6.20;73.80;;;;;;5072992;28;20460;-58
2023/04/05 00:41:13;;;;;;;7.43;4.90;;;6.20;74.20;;;;;;5072860;28;20967;-58
2023/04/05 00:43:41;;;;;;;5.30;4.20;;;6.20;74.90;;;;;;5073214;28;20469;-58
2023/04/05 00:46:08;;;;;;;6.23;4.40;;;6.20;75.40;;;;;;5072741;28;20946;-58
2023/04/05 00:48:36;;;;;;;5.73;3.77;;;6.20;75.20;;;;;;5073087;28;20452;-58
2023/04/05 00:51:03;;;;;;;9.10;5.67;;;6.20;75.50;;;;;;5072979;28;20492;-58
2023/04/05 00:53:31;;;;;;;5.50;4.33;;;6.10;75.70;;;;;;5073034;28;20563;-58
2023/04/05 00:55:58;;;;;;;6.40;4.60;;;6.10;75.90;;;;;;5072981;28;20502;-58
2023/04/05 00:58:25;;;;;;;5.40;3.80;;;6.10;76.10;;;;;;5072587;28;20934;-58
2023/04/05 01:01:00;;;;;;;4.60;4.03;;;6.00;76.30;;;;;;5073004;28;20803;-58
2023/04/05 01:03:29;;;;;;;6.47;4.07;;;6.00;76.60;;;;;;5072540;28;21004;-58
2023/04/05 01:06:09;;;;;;;6.33;4.40;;;6.00;76.80;;;;;;5072573;28;21013;-58
2023/04/05 01:08:50;;;;;;;7.27;4.57;;;6.00;76.50;;;;;;5072551;28;20794;-58
2023/04/05 01:11:18;;;;;;;5.80;4.23;;;6.00;76.50;;;;;;5074700;28;21004;-58
2023/04/05 01:13:46;;;;;;;8.50;5.60;;;5.90;76.40;;;;;;5076393;28;20473;-58
2023/04/05 01:16:12;;;;;;;6.30;4.33;;;5.90;76.80;;;;;;5076485;28;20539;-58
2023/04/05 01:18:39;;;;;;;6.17;5.13;;;5.80;76.70;;;;;;5076184;28;20448;-58
2023/04/05 01:21:33;;;;;;;7.00;4.83;;;5.80;77.10;;;;;;5076370;28;20440;-58
2023/04/05 01:24:13;;;;;;;6.00;4.43;;;5.70;77.60;;;;;;5076441;28;21044;-58
2023/04/05 01:26:59;;;;;;;4.90;4.30;;;5.70;77.90;;;;;;5076343;28;20428;-58
2023/04/05 01:29:57;;;;;;;7.93;5.37;;;5.70;78.10;;;;;;5076239;28;20440;-58
2023/04/05 01:32:45;;;;;;;5.77;4.60;;;5.70;78.60;;;;;;5075961;28;20420;-58
2023/04/05 01:35:18;;;;;;;7.77;5.10;;;5.70;78.70;;;;;;5076187;28;20428;-58
2023/04/05 01:37:49;;;;;;;8.73;5.10;;;5.70;78.60;;;;;;5075849;28;20907;-58
2023/04/05 01:40:16;;;;;;;6.23;4.80;;;5.60;79.90;;;;;;5075751;28;20453;-58
2023/04/05 01:42:45;;;;;;;5.80;4.60;;;5.70;79.90;;;;;;5075930;28;20444;-58
2023/04/05 01:45:13;;;;;;;7.27;5.63;;;5.70;80.10;;;;;;5075681;28;20476;-58
2023/04/05 01:47:40;;;;;;;7.10;5.07;;;5.70;80.20;;;;;;5076014;28;20441;-58
2023/04/05 01:50:08;;;;;;;6.20;5.20;;;5.70;80.70;;;;;;5075759;28;20448;-58
2023/04/05 01:52:35;;;;;;;6.73;4.90;;;5.80;80.60;;;;;;5075456;28;20445;-58
2023/04/05 01:55:02;;;;;;;6.30;4.53;;;5.80;81.10;;;;;;5075425;28;20469;-58
2023/04/05 01:57:28;;;;;;;6.67;4.93;;;5.80;81.00;;;;;;5075523;28;20886;-58
2023/04/05 01:59:55;;;;;;;5.83;5.20;;;5.80;80.70;;;;;;5075706;28;20449;-58
2023/04/05 02:02:23;;;;;;;8.50;4.87;;;5.80;80.70;;;;;;5075674;28;20448;-58
2023/04/05 02:04:50;;;;;;;7.73;5.07;;;5.80;81.20;;;;;;5075513;28;20534;-58
2023/04/05 02:07:16;;;;;;;6.93;5.23;;;5.80;81.40;;;;;;5075548;28;20441;-58
2023/04/05 02:09:43;;;;;;;5.50;5.00;;;5.70;81.20;;;;;;5075568;28;20441;-58
2023/04/05 02:12:10;;;;;;;5.13;4.63;;;5.60;81.50;;;;;;5075347;28;20480;-58
2023/04/05 02:14:37;;;;;;;6.63;4.47;;;5.70;81.70;;;;;;5075275;28;20475;-59
2023/04/05 02:17:03;;;;;;;5.10;4.60;;;5.70;81.70;;;;;;5075037;28;20444;-59
2023/04/05 02:19:39;;;;;;;7.47;4.90;;;5.60;81.70;;;;;;5075309;28;20506;-59
2023/04/05 02:22:06;;;;;;;6.80;5.33;;;5.60;81.80;;;;;;5074335;28;20429;-58
2023/04/05 02:24:33;;;;;;;7.70;5.53;;;5.60;81.80;;;;;;5075064;28;20464;-58
2023/04/05 02:27:00;;;;;;;6.60;5.33;;;5.50;81.60;;;;;;5075180;28;20452;-58
2023/04/05 02:29:26;;;;;;;10.43;5.30;;;5.50;81.50;;;;;;5075695;28;20484;-59
2023/04/05 02:31:53;;;;;;;7.07;5.80;;;5.50;81.50;;;;;;5075004;28;20502;-59
2023/04/05 02:34:21;;;;;;;6.50;5.90;;;5.40;81.50;;;;;;5074927;28;20457;-58
2023/04/05 02:36:49;;;;;;;9.73;5.87;;;5.40;81.60;;;;;;5074925;28;20456;-58
2023/04/05 02:39:16;;;;;;;7.80;5.77;;;5.40;81.30;;;;;;5074693;28;20464;-58
2023/04/05 02:41:43;;;;;;;7.23;5.90;;;5.40;81.20;;;;;;5074794;28;20494;-58
2023/04/05 02:44:10;;;;;;;6.90;5.60;;;5.40;81.20;;;;;;5074652;28;20480;-58
2023/04/05 02:46:37;;;;;;;7.63;6.27;;;5.30;81.00;;;;;;5074688;28;20445;-59
2023/04/05 02:49:03;;;;;;;7.13;5.90;;;5.30;81.20;;;;;;5074721;28;20447;-59
2023/04/05 02:51:33;;;;;;;6.27;5.53;;;5.30;81.40;;;;;;5074580;28;20476;-59
2023/04/05 02:54:01;;;;;;;8.60;6.27;;;5.30;81.40;;;;;;5074552;28;20468;-59
2023/04/05 02:56:28;;;;;;;10.87;6.00;;;5.30;81.50;;;;;;5074521;28;20445;-58
2023/04/05 02:58:55;;;;;;;13.40;6.10;;;5.30;81.70;;;;;;5074502;28;20820;-59
2023/04/05 03:01:22;;;;;;;6.80;6.00;;;5.20;81.70;;;;;;5074454;28;20452;-59
2023/04/05 03:03:49;;;;;;;8.13;6.50;;;5.20;81.70;;;;;;5074221;28;20480;-59
2023/04/05 03:06:16;;;;;;;9.57;6.47;;;5.20;82.10;;;;;;5074099;28;20884;-58
2023/04/05 03:08:45;;;;;;;9.60;5.60;;;5.20;82.30;;;;;;5074351;28;20445;-59
2023/04/05 03:11:13;;;;;;;8.20;5.90;;;5.20;82.50;;;;;;5073850;28;20579;-59
2023/04/05 03:13:40;;;;;;;7.57;6.30;;;5.20;82.40;;;;;;5074709;28;20468;-59
2023/04/05 03:16:07;;;;;;;6.97;5.60;;;5.20;82.30;;;;;;5073827;28;21000;-59
2023/04/05 03:18:34;;;;;;;6.77;5.93;;;5.20;82.60;;;;;;5074092;28;20440;-59
2023/04/05 03:21:00;;;;;;;10.00;6.27;;;5.20;83.00;;;;;;5074105;28;20498;-59
2023/04/05 03:23:28;;;;;;;8.20;5.57;;;5.20;82.80;;;;;;5074647;28;20468;-58
2023/04/05 03:25:56;;;;;;;9.10;5.93;;;5.20;82.90;;;;;;5074059;28;20448;-58
2023/04/05 03:28:24;;;;;;;6.13;5.17;;;5.20;82.80;;;;;;5074345;28;20547;-58
2023/04/05 03:30:51;;;;;;;9.63;6.10;;;5.20;82.60;;;;;;5074026;28;20484;-58
2023/04/05 03:33:18;;;;;;;8.77;4.80;;;5.10;82.60;;;;;;5073878;28;20465;-58
2023/04/05 03:35:45;;;;;;;9.00;6.00;;;5.10;82.70;;;;;;5074048;28;20456;-58
2023/04/05 03:38:12;;;;;;;6.20;5.33;;;5.00;82.60;;;;;;5073389;28;21089;-58
2023/04/05 03:40:39;;;;;;;9.20;5.83;;;5.00;82.80;;;;;;5073508;28;20425;-58
2023/04/05 03:43:06;;;;;;;6.30;5.57;;;4.90;82.60;;;;;;5073868;28;20461;-58
2023/04/05 03:45:34;;;;;;;8.47;5.87;;;4.90;82.50;;;;;;5073425;28;20966;-58
2023/04/05 03:48:01;;;;;;;10.60;5.43;;;4.90;82.60;;;;;;5074091;28;20437;-58
2023/04/05 03:50:28;;;;;;;6.77;5.80;;;4.90;82.80;;;;;;5073652;28;20889;-58
2023/04/05 03:52:55;;;;;;;7.97;6.10;;;4.80;83.20;;;;;;5073167;28;20483;-58
2023/04/05 03:55:22;;;;;;;7.50;5.83;;;4.80;83.60;;;;;;5073676;28;20449;-59
2023/04/05 03:57:48;;;;;;;6.33;5.57;;;4.80;83.90;;;;;;5073658;28;20448;-58
2023/04/05 04:00:16;;;;;;;7.83;5.60;;;4.80;83.90;;;;;;5073226;28;20957;-58
2023/04/05 04:02:46;;;;;;;8.40;5.90;;;4.80;83.90;;;;;;5073116;28;21053;-58
2023/04/05 04:05:13;;;;;;;10.17;5.73;;;4.70;83.80;;;;;;5073444;28;20456;-58
2023/04/05 04:07:41;;;;;;;6.47;4.90;;;4.70;84.00;;;;;;5073507;28;20459;-58
2023/04/05 04:10:09;;;;;;;8.90;5.90;;;4.70;84.20;;;;;;5073484;28;20480;-58
2023/04/05 04:12:36;;;;;;;7.93;5.03;;;4.70;84.30;;;;;;5073313;28;20567;-58
2023/04/05 04:15:03;;;;;;;9.63;5.83;;;4.60;84.10;;;;;;5073365;28;20471;-58
2023/04/05 04:17:33;;;;;;;8.87;5.57;;;4.60;84.30;;;;;;5073398;28;20444;-58
2023/04/05 04:20:01;;;;;;;8.40;5.17;;;4.60;84.20;;;;;;5073307;28;20476;-58
2023/04/05 04:22:32;;;;;;;6.50;4.70;;;4.50;84.10;;;;;;5073405;28;20447;-58
2023/04/05 04:25:01;;;;;;;6.77;6.07;;;4.50;84.30;;;;;;5073357;28;20469;-58
2023/04/05 04:27:29;;;;;;;6.27;5.63;;;4.50;85.20;;;;;;5073251;28;20844;-58
2023/04/05 04:30:00;;;;;;;6.03;4.90;;;4.50;84.40;;;;;;5073225;28;20459;-58
2023/04/05 04:32:46;;;;;;;9.80;6.27;;;4.50;84.60;;;;;;5073270;28;20501;-58
2023/04/05 04:35:16;;;;;;;8.33;5.93;;;4.40;84.70;;;;;;5073255;28;20487;-58
2023/04/05 04:37:45;;;;;;;10.07;5.90;;;4.40;84.70;;;;;;5073041;28;20929;-59
2023/04/05 04:40:14;;;;;;;7.73;5.80;;;4.40;84.70;;;;;;5072879;28;20547;-59
2023/04/05 04:42:43;;;;;;;8.40;5.90;;;4.40;84.80;;;;;;5073233;28;20498;-58
2023/04/05 04:45:11;;;;;;;7.57;5.60;;;4.40;85.00;;;;;;5073653;28;20452;-58
2023/04/05 04:47:38;;;;;;;6.77;5.27;;;4.40;85.20;;;;;;5077240;28;20455;-58
2023/04/05 04:50:06;;;;;;;6.93;5.30;;;4.40;85.40;;;;;;5077039;28;20480;-58
2023/04/05 04:52:35;;;;;;;6.63;5.50;;;4.40;85.80;;;;;;5076777;28;20896;-58
2023/04/05 04:55:03;;;;;;;6.50;5.00;;;4.30;85.50;;;;;;5076854;28;20539;-58
2023/04/05 04:57:30;;;;;;;7.30;5.97;;;4.30;86.10;;;;;;5076902;28;20498;-58
2023/04/05 04:59:56;;;;;;;9.03;6.40;;;4.30;86.30;;;;;;5076810;28;20460;-58
2023/04/05 05:02:24;;;;;;;6.93;5.90;;;4.30;86.10;;;;;;5076824;28;20449;-58
2023/04/05 05:04:51;;;;;;;9.27;6.23;;;4.30;86.10;;;;;;5076720;28;20475;-58
2023/04/05 05:07:18;;;;;;;11.07;6.00;;;4.20;85.90;;;;;;5076653;28;20491;-58
2023/04/05 05:09:46;;;;;;;10.93;6.47;;;4.20;86.00;;;;;;5077450;28;20452;-58
2023/04/05 05:12:13;;;;;;;10.37;5.67;;;4.20;86.00;;;;;;5076469;28;20480;-58
2023/04/05 05:14:40;;;;;;;8.10;6.53;;;4.20;86.40;;;;;;5076490;28;20839;-58
2023/04/05 05:17:07;;;;;;;7.33;5.90;;;4.20;86.40;;;;;;5076491;28;20455;-59
2023/04/05 05:19:34;;;;;;;7.93;5.63;;;4.20;86.30;;;;;;5076452;28;20525;-59
2023/04/05 05:22:00;;;;;;;7.07;6.03;;;4.20;86.60;;;;;;5076418;28;20444;-58
2023/04/05 05:24:27;;;;;;;7.90;5.40;;;4.20;86.70;;;;;;5076332;28;20472;-58
2023/04/05 05:26:55;;;;;;;6.07;4.50;;;4.20;86.70;;;;;;5076440;28;20437;-59
2023/04/05 05:29:22;;;;;;;13.43;6.33;;;4.10;86.70;;;;;;5076299;28;20441;-59
2023/04/05 05:31:49;;;;;;;5.80;4.57;;;4.10;87.10;;;;;;5076166;28;20534;-59
2023/04/05 05:34:16;;;;;;;6.37;5.70;;;4.10;87.50;;;;;;5076191;28;20490;-58
2023/04/05 05:36:43;;;;;;;5.77;4.73;;;4.10;87.90;;;;;;5075669;28;21030;-59
2023/04/05 05:39:10;;;;;;;10.37;6.03;;;4.10;88.00;;;;;;5075706;28;20468;-59
2023/04/05 05:41:37;;;;;;;6.73;5.80;;;4.10;88.10;;;;;;5076647;28;20582;-59
2023/04/05 05:44:06;;;;;;;10.43;6.27;;;4.10;88.10;;;;;;5076083;28;20468;-59
2023/04/05 05:46:32;;;;;;;8.37;5.87;;;4.10;87.80;;;;;;5075853;28;20455;-58
2023/04/05 05:48:59;;;;;;;6.57;5.03;;;4.10;88.00;;;;;;5076691;28;20547;-59
2023/04/05 05:51:26;;;;;;;6.00;4.80;;;4.10;87.90;;;;;;5076032;28;20440;-58
2023/04/05 05:53:52;;;;;;;7.63;4.67;;;4.10;88.10;;;;;;5075737;28;20460;-59
2023/04/05 05:56:19;;;;;;;6.47;5.27;;;4.20;88.90;;;;;;5075049;28;20502;-59
2023/04/05 05:58:46;;;;;;;9.40;6.07;;;4.20;89.30;;;;;;5074889;28;20436;-59
2023/04/05 06:01:14;;;;;;;8.67;5.60;;;4.20;89.50;;;;;;5075671;28;20527;-59
2023/04/05 06:03:41;;;;;;;9.30;5.23;;;4.20;89.70;;;;;;5075492;28;20456;-59
2023/04/05 06:06:09;;;;;;;6.10;5.50;;;4.20;89.80;;;;;;5075281;28;20950;-59
2023/04/05 06:08:37;;;;;;;7.93;6.10;;;4.30;90.10;;;;;;5075434;28;20539;-59
2023/04/05 06:11:04;;;;;;;11.40;6.27;;;4.30;90.20;;;;;;5075422;28;20445;-59
2023/04/05 06:13:31;;;;;;;9.70;6.17;;;4.20;90.30;;;;;;5075205;28;20496;-59
2023/04/05 06:15:57;;;;;;;8.63;6.10;;;4.30;90.50;;;;;;5075090;28;20436;-59
2023/04/05 06:18:25;;;;;;;7.37;6.57;;;4.30;90.60;;;;;;5075286;28;20453;-59
2023/04/05 06:20:54;;;;;;;8.80;6.60;;;4.30;90.60;;;;;;5075248;28;20451;-60
2023/04/05 06:23:21;;;;;;;9.63;6.60;;;4.40;90.80;;;;;;5075208;28;20518;-59
2023/04/05 06:25:48;;;;;;;11.37;6.60;;;4.40;90.90;;;;;;5075271;28;20449;-59
2023/04/05 06:28:14;;;;;;;8.30;6.57;;;4.40;91.00;;;;;;5075404;28;20506;-59
2023/04/05 06:30:41;;;;;;;8.10;5.90;;;4.40;91.10;;;;;;5075305;28;20821;-59
2023/04/05 06:33:08;;;;;;;9.57;6.30;;;4.50;91.40;;;;;;5074880;28;20484;-58
2023/04/05 06:35:36;;;;;;;11.23;6.33;;;4.60;91.70;;;;;;5075473;28;20455;-59
2023/04/05 06:38:02;;;;;;;9.13;6.40;;;4.70;91.80;;;;;;5074961;28;20444;-58
2023/04/05 06:40:29;;;;;;;11.53;7.30;;;4.80;91.80;;;;;;5074997;28;20440;-58
2023/04/05 06:42:56;;;;;;;13.57;9.60;;;4.80;91.60;;;;;;5074871;28;20448;-58
2023/04/05 06:45:23;;;;;;;9.47;7.10;;;4.90;91.60;;;;;;5074905;28;20451;-58
2023/04/05 06:47:49;;;;;;;13.03;9.87;;;5.00;91.40;;;;;;5074775;28;20437;-58
2023/04/05 06:50:16;;;;;;;11.90;8.07;;;5.10;91.20;;;;;;5074617;28;20499;-58
2023/04/05 06:52:44;;;;;;;10.50;9.20;;;5.20;90.90;;;;;;5074200;28;20867;-59
2023/04/05 06:55:11;;;;;;;11.80;8.47;;;5.40;90.50;;;;;;5074296;28;20793;-59
2023/04/05 06:57:38;;;;;;;11.40;8.40;;;5.50;90.20;;;;;;5074594;28;20903;-59
2023/04/05 07:00:09;;;;;;;13.93;9.07;;;5.60;89.80;;;;;;5074438;28;20456;-59
2023/04/05 07:02:36;;;;;;;11.87;8.07;;;5.80;89.10;;;;;;5074532;28;20500;-59
2023/04/05 07:05:04;;;;;;;18.17;9.60;;;5.90;89.00;;;;;;5074574;28;20473;-59
2023/04/05 07:07:32;;;;;;;14.90;8.60;;;6.00;87.00;;;;;;5074132;28;20854;-59
2023/04/05 07:10:00;;;;;;;11.23;7.90;;;6.10;86.00;;;;;;5073882;28;20449;-59
2023/04/05 07:12:26;;;;;;;12.27;9.10;;;6.20;85.40;;;;;;5074283;28;20476;-59
2023/04/05 07:14:53;;;;;;;14.00;9.20;;;6.30;85.00;;;;;;5074220;28;20465;-59
2023/04/05 07:17:20;;;;;;;16.37;10.13;;;6.50;85.00;;;;;;5074190;28;20498;-59
2023/04/05 07:19:47;;;;;;;12.00;8.00;;;6.60;84.70;;;;;;5074159;28;20449;-58
2023/04/05 07:22:14;;;;;;;10.97;8.30;;;6.80;82.30;;;;;;5074101;28;20451;-59
2023/04/05 07:24:40;;;;;;;12.03;8.73;;;6.80;81.30;;;;;;5074103;28;20468;-59
2023/04/05 07:27:08;;;;;;;12.73;8.37;;;7.00;82.40;;;;;;5073895;28;20503;-59
2023/04/05 07:29:39;;;;;;;21.23;10.00;;;7.10;80.60;;;;;;5074020;28;20472;-59
2023/04/05 07:32:06;;;;;;;14.00;8.60;;;7.20;79.50;;;;;;5073906;28;20437;-59
2023/04/05 07:34:33;;;;;;;12.43;8.77;;;7.30;79.20;;;;;;5073696;28;20484;-58
2023/04/05 07:36:59;;;;;;;9.37;8.37;;;7.50;79.00;;;;;;5073429;28;20819;-59
2023/04/05 07:39:26;;;;;;;17.00;9.67;;;7.60;78.30;;;;;;5073508;28;20456;-59
2023/04/05 07:41:53;;;;;;;10.20;9.03;;;7.80;77.30;;;;;;5073671;28;20456;-60
2023/04/05 07:44:21;;;;;;;11.93;9.67;;;7.90;76.00;;;;;;5073762;28;20495;-60
2023/04/05 07:46:48;;;;;;;17.10;9.40;;;8.00;75.90;;;;;;5073686;28;20480;-59
2023/04/05 07:49:15;;;;;;;13.17;8.63;;;8.10;74.50;;;;;;5073607;28;20471;-59
2023/04/05 07:51:42;;;;;;;11.07;8.63;;;8.30;74.90;;;;;;5073549;28;20451;-59
2023/04/05 07:54:09;;;;;;;11.50;9.07;;;8.40;74.80;;;;;;5073487;28;20535;-59
2023/04/05 07:56:37;;;;;;;12.10;10.13;;;8.60;74.40;;;;;;5073618;28;20456;-60
2023/04/05 07:59:04;;;;;;;12.27;8.93;;;8.80;73.70;;;;;;5073506;28;20839;-60
2023/04/05 08:01:32;;;;;;;14.70;9.00;;;8.90;72.80;;;;;;5073524;28;20498;-59
2023/04/05 08:03:58;;;;;;;15.07;10.20;;;9.10;72.10;;;;;;5073052;28;20464;-59
2023/04/05 08:06:26;;;;;;;12.40;10.10;;;9.20;71.30;;;;;;5073100;28;20958;-59
2023/04/05 08:08:53;;;;;;;11.43;8.50;;;9.50;70.50;;;;;;5073418;28;20869;-60
2023/04/05 08:11:20;;;;;;;12.70;10.30;;;9.60;69.00;;;;;;5073426;28;20449;-59
2023/04/05 08:13:47;;;;;;;13.10;8.40;;;9.80;67.90;;;;;;5073270;28;20516;-60
2023/04/05 08:16:14;;;;;;;14.23;9.70;;;10.00;64.30;;;;;;5073318;28;20445;-59
2023/04/05 08:18:42;;;;;;;15.73;9.00;;;10.10;62.10;;;;;;5073328;28;20454;-59
2023/04/05 08:21:08;;;;;;;12.10;9.50;;;10.30;61.90;;;;;;5072403;28;20453;-59
2023/04/05 08:23:35;;;;;;;12.00;9.47;;;10.50;61.60;;;;;;5073712;28;20468;-59
2023/04/05 08:26:02;;;;;;;11.07;9.87;;;10.70;60.00;;;;;;5073135;28;20441;-59
2023/04/05 08:28:29;;;;;;;10.57;9.47;;;10.90;59.20;;;;;;5073152;28;20452;-59
2023/04/05 08:30:56;;;;;;;14.30;9.70;;;11.00;59.10;;;;;;5072752;28;20942;-59
2023/04/05 08:33:24;;;;;;;10.97;9.83;;;11.10;59.40;;;;;;5072868;28;20491;-59
2023/04/05 08:35:52;;;;;;;11.17;9.17;;;11.30;59.40;;;;;;5072687;28;20492;-59
2023/04/05 08:38:19;;;;;;;12.60;10.90;;;11.40;58.90;;;;;;5072639;28;20841;-60
2023/04/05 08:40:47;;;;;;;18.97;10.47;;;11.60;59.20;;;;;;5073886;28;20448;-59
2023/04/05 08:43:22;;;;;;;12.60;10.30;;;11.70;58.00;;;;;;5072964;28;20483;-59
2023/04/05 08:45:51;;;;;;;15.10;10.70;;;11.80;56.70;;;;;;5073074;28;20428;-59
2023/04/05 08:48:18;;;;;;;13.87;11.33;;;11.90;56.90;;;;;;5072736;28;20441;-59
2023/04/05 08:50:52;;;;;;;19.03;11.40;;;11.90;56.30;;;;;;5073018;28;20453;-59
2023/04/05 08:53:19;;;;;;;15.20;10.50;;;12.00;56.40;;;;;;5072823;28;20513;-60
2023/04/05 08:55:50;;;;;;;17.20;11.30;;;12.10;56.30;;;;;;5072851;28;20851;-60
2023/04/05 08:58:18;;;;;;;10.63;9.53;;;12.20;55.80;;;;;;5073355;28;20429;-60
2023/04/05 09:00:45;;;;;;;15.90;10.40;;;12.30;56.10;;;;;;5072938;28;20444;-60
2023/04/05 09:03:17;;;;;;;13.83;11.10;;;12.50;56.40;;;;;;5072703;28;20467;-60
2023/04/05 09:05:48;;;;;;;13.90;9.53;;;12.70;54.50;;;;;;5073334;28;20440;-60
2023/04/05 09:08:16;;;;;;;12.40;9.70;;;12.90;54.20;;;;;;5073499;28;20441;-60
2023/04/05 09:10:43;;;;;;;15.40;10.20;;;13.10;52.40;;;;;;5073746;28;20441;-60
2023/04/05 09:13:10;;;;;;;12.40;9.60;;;13.30;51.50;;;;;;5073940;28;20481;-60
2023/04/05 09:15:38;;;;;;;11.43;9.37;;;13.50;50.90;;;;;;5073376;28;20835;-60
2023/04/05 09:18:05;;;;;;;15.27;11.40;;;13.80;50.00;;;;;;5073409;28;20453;-60
2023/04/05 09:20:32;;;;;;;16.50;10.50;;;14.00;48.20;;;;;;5073910;28;20451;-59
2023/04/05 09:22:59;;;;;;;11.70;10.20;;;14.20;47.20;;;;;;5073109;28;20531;-60
2023/04/05 09:25:38;;;;;;;12.23;11.00;;;14.50;46.30;;;;;;5072534;28;20946;-60
2023/04/05 09:28:05;;;;;;;12.37;9.87;;;14.70;45.50;;;;;;5072885;28;20423;-59
2023/04/05 09:30:33;;;;;;;10.40;9.27;;;14.80;45.40;;;;;;5073038;28;20476;-59
2023/04/05 09:33:00;;;;;;;10.53;9.43;;;15.00;46.10;;;;;;5075831;28;20915;-59
2023/04/05 09:35:29;;;;;;;16.13;9.53;;;15.30;46.80;;;;;;5076434;28;20445;-60
2023/04/05 09:37:57;;;;;;;10.70;9.60;;;15.50;44.00;;;;;;5075940;28;20934;-60
2023/04/05 09:40:39;;;;;;;12.30;9.10;;;15.70;44.90;;;;;;5075724;28;20456;-60
2023/04/05 09:43:08;;;;;;;14.93;10.33;;;16.00;44.90;;;;;;5076113;28;20518;-59
2023/04/05 09:45:40;;;;;;;11.57;8.57;;;16.20;41.60;;;;;;5076116;28;20464;-59
2023/04/05 09:48:07;;;;;;;10.03;8.97;;;16.40;41.20;;;;;;5076120;28;20494;-60
2023/04/05 09:50:35;;;;;;;10.90;8.77;;;16.60;41.60;;;;;;5075981;28;20445;-59
2023/04/05 09:53:09;;;;;;;12.00;8.00;;;17.00;42.00;;;;;;5075728;28;20491;-60
2023/04/05 09:55:36;;;;;;;12.90;9.00;;;17.30;41.60;;;;;;5075861;28;20543;-60
2023/04/05 09:58:03;;;;;;;11.90;9.83;;;17.50;39.70;;;;;;5075757;28;20452;-59
2023/04/05 10:00:32;;;;;;;9.73;8.80;;;17.60;36.90;;;;;;5075662;28;20535;-59
2023/04/05 10:02:59;;;;;;;11.40;9.03;;;17.80;37.10;;;;;;5076442;28;20449;-57
2023/04/05 10:05:28;;;;;;;10.60;8.80;;;18.00;36.90;;;;;;5075440;28;20942;-58
2023/04/05 10:07:55;;;;;;;9.97;8.30;;;18.40;37.50;;;;;;5075731;28;20452;-59
2023/04/05 10:10:23;;;;;;;9.13;8.20;;;18.70;37.30;;;;;;5075642;28;20452;-59
2023/04/05 10:12:51;;;;;;;10.47;8.00;;;19.00;35.60;;;;;;5075552;28;20444;-58
2023/04/05 10:15:18;;;;;;;10.23;8.90;;;19.40;35.00;;;;;;5075705;28;20818;-59
2023/04/05 10:17:54;;;;;;;12.37;7.60;;;19.60;34.70;;;;;;5075572;28;20444;-58
2023/04/05 10:20:22;;;;;;;9.40;7.73;;;20.00;33.80;;;;;;5075425;28;20456;-58
2023/04/05 10:23:00;;;;;;;11.60;8.67;;;20.40;32.70;;;;;;5074930;28;20939;-59
2023/04/05 10:25:36;;;;;;;7.90;7.20;;;20.80;29.50;;;;;;5075426;28;20860;-59
2023/04/05 10:28:05;;;;;;;9.27;7.30;;;21.20;29.20;;;;;;5075209;28;20503;-58
2023/04/05 10:30:36;;;;;;;8.83;6.70;;;21.60;29.10;;;;;;5075095;28;20450;-59
2023/04/05 10:33:13;;;;;;;7.20;6.53;;;22.00;27.60;;;;;;5074988;28;22346;-59
2023/04/05 10:35:58;;;;;;;8.03;7.33;;;22.30;25.80;;;;;;5075052;28;20432;-59
2023/04/05 10:38:26;;;;;;;7.93;7.13;;;22.60;26.30;;;;;;5074873;28;20460;-59
2023/04/05 10:40:55;;;;;;;8.00;6.13;;;23.10;26.60;;;;;;5075004;28;20487;-59
2023/04/05 10:43:25;;;;;;;5.60;5.10;;;23.60;26.50;;;;;;5074043;28;20457;-59
2023/04/05 10:45:54;;;;;;;6.73;5.50;;;24.20;25.50;;;;;;5074809;28;20460;-59
2023/04/05 10:48:36;;;;;;;9.53;6.00;;;24.80;25.70;;;;;;5074765;28;20448;-59
2023/04/05 10:51:03;;;;;;;6.93;6.00;;;25.40;24.40;;;;;;5074688;28;20436;-59
2023/04/05 10:53:32;;;;;;;5.23;4.83;;;25.90;24.10;;;;;;5074516;28;20538;-59
2023/04/05 10:56:01;;;;;;;7.37;5.90;;;26.40;23.40;;;;;;5075079;28;20479;-59
2023/04/05 10:58:28;;;;;;;8.33;7.53;;;26.90;21.70;;;;;;5074526;28;20453;-59
2023/04/05 11:00:56;;;;;;;7.27;6.53;;;27.10;20.30;;;;;;5074483;28;20452;-59
2023/04/05 11:03:44;;;;;;;8.23;6.97;;;27.10;19.70;;;;;;5074341;28;20468;-59
2023/04/05 11:06:23;;;;;;;5.67;5.20;;;27.30;20.40;;;;;;5074422;28;20452;-59
2023/04/05 11:08:52;;;;;;;7.50;6.70;;;27.60;20.60;;;;;;5074395;28;20455;-59
2023/04/05 11:11:21;;;;;;;7.40;6.73;;;27.80;20.60;;;;;;5074004;28;20973;-59
2023/04/05 11:13:50;;;;;;;8.23;6.30;;;28.10;20.30;;;;;;5073846;28;20533;-59
2023/04/05 11:16:17;;;;;;;7.50;6.83;;;28.40;20.70;;;;;;5074163;28;20539;-59
2023/04/05 11:18:49;;;;;;;7.07;6.37;;;28.70;20.30;;;;;;5074930;28;20459;-59
2023/04/05 11:21:24;;;;;;;6.90;6.40;;;29.00;19.80;;;;;;5074105;28;20444;-59
2023/04/05 11:24:03;;;;;;;7.73;7.13;;;29.40;19.50;;;;;;5074004;28;20470;-59
2023/04/05 11:26:39;;;;;;;8.07;7.27;;;29.50;18.50;;;;;;5074020;28;20455;-59
2023/04/05 11:29:05;;;;;;;7.90;7.20;;;29.60;19.20;;;;;;5074354;28;20435;-60
2023/04/05 11:31:32;;;;;;;9.40;7.60;;;29.80;19.70;;;;;;5074076;28;20497;-59
2023/04/05 11:34:09;;;;;;;8.93;8.17;;;30.10;19.60;;;;;;5073672;28;20981;-59
2023/04/05 11:36:44;;;;;;;9.60;8.47;;;30.30;18.80;;;;;;5073741;28;20808;-59
2023/04/05 11:39:27;;;;;;;8.17;7.47;;;30.50;17.60;;;;;;5073744;28;20562;-59
2023/04/05 11:42:02;;;;;;;8.07;7.47;;;30.50;17.00;;;;;;5073855;28;20436;-59
2023/04/05 11:44:30;;;;;;;7.90;7.10;;;30.50;18.20;;;;;;5073680;28;20867;-59
2023/04/05 11:46:57;;;;;;;7.83;7.13;;;30.70;18.90;;;;;;5073771;28;20452;-59
2023/04/05 11:49:25;;;;;;;8.70;7.90;;;31.10;18.80;;;;;;5073812;28;20452;-59
2023/04/05 11:51:53;;;;;;;8.70;8.00;;;31.40;17.70;;;;;;5073765;28;20451;-59
2023/04/05 11:54:33;;;;;;;8.80;7.90;;;31.60;16.90;;;;;;5073626;28;20567;-59
2023/04/05 11:57:00;;;;;;;9.20;8.40;;;31.70;16.10;;;;;;5073605;28;20442;-59
2023/04/05 11:59:31;;;;;;;8.70;8.00;;;31.80;15.60;;;;;;5073348;28;20563;-59
2023/04/05 12:01:59;;;;;;;8.87;8.00;;;31.90;15.90;;;;;;5056594;28;20551;-59
2023/04/05 12:04:27;;;;;;;8.77;8.17;;;32.10;16.90;;;;;;5053270;28;20500;-59
2023/04/05 12:07:10;;;;;;;10.60;9.77;;;32.40;16.60;;;;;;5053517;28;20532;-59
2023/04/05 12:09:59;;;;;;;8.43;7.73;;;32.60;15.10;;;;;;5054540;28;20453;-59
2023/04/05 12:12:26;;;;;;;8.93;8.10;;;32.50;14.60;;;;;;5063977;28;20531;-59
2023/04/05 12:14:59;;;;;;;9.43;8.67;;;32.50;15.70;;;;;;5073502;28;20490;-59
2023/04/05 12:17:48;;;;;;;9.33;8.63;;;32.70;15.90;;;;;;5073674;28;20428;-59
2023/04/05 12:20:19;;;;;;;13.10;10.17;;;32.80;14.70;;;;;;5073625;28;20463;-59
2023/04/05 12:22:48;;;;;;;10.10;9.20;;;32.90;14.60;;;;;;5073311;28;20510;-59
2023/04/05 12:25:15;;;;;;;8.93;8.10;;;33.00;14.80;;;;;;5073463;28;20460;-59
2023/04/05 12:27:42;;;;;;;9.70;8.80;;;33.20;15.10;;;;;;5073271;28;20516;-59
2023/04/05 12:30:14;;;;;;;9.70;8.90;;;33.40;14.30;;;;;;5073505;28;20451;-59
2023/04/05 12:32:45;;;;;;;8.60;7.90;;;33.60;13.50;;;;;;5073250;28;20486;-59
2023/04/05 12:35:15;;;;;;;9.87;9.17;;;33.50;13.50;;;;;;5073163;28;20221;-59
2023/04/05 12:37:43;;;;;;;9.67;8.70;;;33.70;13.50;;;;;;5073167;28;20201;-59
2023/04/05 12:40:10;;;;;;;8.60;8.00;;;33.90;13.60;;;;;;5072797;28;20218;-59
2023/04/05 12:42:38;;;;;;;9.23;8.47;;;34.20;13.40;;;;;;5072477;28;20585;-58
2023/04/05 12:45:07;;;;;;;8.70;7.87;;;34.50;12.20;;;;;;5072889;28;20715;-59
2023/04/05 12:47:35;;;;;;;7.53;6.93;;;34.70;11.40;;;;;;5073165;28;20210;-60
2023/04/05 12:50:16;;;;;;;8.13;7.43;;;35.00;11.70;;;;;;5073202;28;20202;-59
2023/04/05 12:52:54;;;;;;;6.38;5.88;;;35.10;11.50;;;;;;5073298;28;20193;-59
2023/04/05 12:55:21;;;;;;;7.60;7.00;;;35.40;13.60;;;;;;5073289;28;20217;-59
2023/04/05 12:57:50;;;;;;;7.35;6.75;;;35.70;12.80;;;;;;5072912;28;20636;-59